Time;durP1;ratioP1;P1;durP2;ratioP2;P2;SDS_P1;SDS_P2;PMS_P1;PMS_P2;Temp;Humidity;BMP_temperature;BMP_pressure;BME280_temperature;BME280_humidity;BME280_pressure;Samples;Min_cycle;Max_cycle;Signal;HPM_P1;HPM_P2
2021/05/08 05:01:31;;;;;;;5.28;4.88;;;;;;;-142.70;100.00;60390.16;5224976;24;20052;-85
2021/05/08 05:03:56;;;;;;;5.30;5.00;;;;;;;-142.70;100.00;60390.16;4743060;30;20044;-82
2021/05/08 05:06:22;;;;;;;4.50;4.20;;;;;;;-142.70;100.00;60390.16;4758495;30;20033;-85
2021/05/08 05:08:47;;;;;;;6.20;4.40;;;;;;;-142.70;100.00;60390.16;4748508;30;20049;-84
2021/05/08 05:11:15;;;;;;;4.22;3.85;;;;;;;-142.70;100.00;60390.16;4718678;30;20092;-83
2021/05/08 05:13:40;;;;;;;4.55;4.22;;;;;;;-142.70;100.00;60390.16;4733233;30;20455;-82
2021/05/08 05:16:06;;;;;;;4.38;4.07;;;;;;;-142.70;100.00;60390.16;4748585;30;20063;-81
2021/05/08 05:18:32;;;;;;;3.83;3.58;;;;;;;-142.70;100.00;60390.16;4724621;30;20157;-85
2021/05/08 05:20:57;;;;;;;4.43;4.13;;;;;;;-142.70;100.00;60390.16;4738466;30;20122;-82
2021/05/08 05:23:23;;;;;;;4.10;3.72;;;;;;;-142.70;100.00;60390.16;4747034;30;20067;-80
2021/05/08 05:25:48;;;;;;;4.40;4.00;;;;;;;-142.70;100.00;60390.16;4730207;30;20446;-81
2021/05/08 05:28:27;;;;;;;3.80;3.60;;;;;;;-142.70;100.00;60390.16;4722504;30;20138;-80
2021/05/08 05:30:53;;;;;;;3.50;3.30;;;;;;;-142.70;100.00;60390.16;4728027;30;20064;-79
2021/05/08 05:33:19;;;;;;;3.63;3.42;;;;;;;-142.70;100.00;60390.16;4709055;30;20068;-80
2021/05/08 05:35:49;;;;;;;3.50;3.10;;;;;;;-142.70;100.00;60390.16;4714298;30;20025;-80
2021/05/08 05:38:14;;;;;;;3.15;2.95;;;;;;;-142.70;100.00;60390.16;4698447;30;20408;-82
2021/05/08 05:40:40;;;;;;;3.30;3.10;;;;;;;-142.70;100.00;60390.16;4714095;30;20047;-80
2021/05/08 05:43:05;;;;;;;2.42;2.33;;;;;;;-142.70;100.00;60390.16;4730532;30;20033;-84
2021/05/08 05:45:31;;;;;;;2.83;2.60;;;;;;;-142.70;100.00;60390.16;4713013;30;20519;-76
2021/05/08 05:47:57;;;;;;;2.80;2.60;;;;;;;-142.70;100.00;60390.16;4734635;30;20028;-78
2021/05/08 05:50:23;;;;;;;5.85;3.25;;;;;;;-142.70;100.00;60390.16;4728804;30;20048;-83
2021/05/08 05:52:52;;;;;;;3.17;2.50;;;;;;;-142.70;100.00;60390.16;4713257;30;20036;-78
2021/05/08 05:55:18;;;;;;;2.93;2.73;;;;;;;-142.70;100.00;60390.16;4699596;30;20024;-81
2021/05/08 05:57:43;;;;;;;3.42;2.35;;;;;;;-142.70;100.00;60390.16;4699825;30;20294;-79
2021/05/08 06:00:10;;;;;;;2.60;2.40;;;;;;;-142.70;100.00;60390.16;4728332;30;20044;-80
2021/05/08 06:02:36;;;;;;;2.88;2.67;;;;;;;-142.70;100.00;60390.16;4728783;30;20076;-80
2021/05/08 06:05:02;;;;;;;2.50;2.40;;;;;;;-142.70;100.00;60390.16;4713058;30;20041;-78
2021/05/08 06:07:27;;;;;;;3.45;2.25;;;;;;;-142.70;100.00;60390.16;4699992;30;20048;-79
2021/05/08 06:09:53;;;;;;;2.40;2.20;;;;;;;-142.70;100.00;60390.16;4727968;30;20029;-78
2021/05/08 06:12:18;;;;;;;2.22;2.13;;;;;;;-142.70;100.00;60390.16;4728281;30;20028;-81
2021/05/08 06:14:44;;;;;;;3.03;2.47;;;;;;;-142.70;100.00;60390.16;4697821;30;20044;-80
2021/05/08 06:17:09;;;;;;;1.95;1.85;;;;;;;-142.70;100.00;60390.16;4682118;30;20037;-81
2021/05/08 06:19:34;;;;;;;1.77;1.67;;;;;;;-142.70;100.00;60390.16;4714185;30;20041;-81
2021/05/08 06:22:00;;;;;;;1.80;1.70;;;;;;;-142.70;100.00;60390.16;4712893;30;20041;-79
2021/05/08 06:24:25;;;;;;;2.35;1.60;;;;;;;-142.70;100.00;60390.16;4714415;30;20102;-81
2021/05/08 06:26:51;;;;;;;1.63;1.52;;;;;;;-142.70;100.00;60390.16;4728335;30;20037;-79
2021/05/08 06:29:16;;;;;;;2.00;1.90;;;;;;;-142.70;100.00;60390.16;4699648;30;20558;-81
2021/05/08 06:31:42;;;;;;;1.70;1.60;;;;;;;-142.70;100.00;60390.16;4699163;30;20083;-77
2021/05/08 06:34:07;;;;;;;2.08;1.73;;;;;;;-142.70;100.00;60390.16;4729143;30;20029;-81
2021/05/08 06:36:33;;;;;;;1.60;1.50;;;;;;;-142.70;100.00;60390.16;4700229;30;20036;-82
2021/05/08 06:38:58;;;;;;;1.63;1.52;;;;;;;-142.70;100.00;60390.16;4726803;30;20071;-80
2021/05/08 06:41:24;;;;;;;2.25;1.30;;;;;;;-142.70;100.00;60390.16;4714302;30;20040;-85
2021/05/08 06:43:49;;;;;;;1.38;1.27;;;;;;;-142.70;100.00;60390.16;4726756;30;20392;-80
2021/05/08 06:46:15;;;;;;;2.55;1.63;;;;;;;-142.70;100.00;60390.16;4713918;30;20024;-84
2021/05/08 06:48:40;;;;;;;2.67;1.52;;;;;;;-142.70;100.00;60390.16;4728332;30;20078;-77
2021/05/08 06:51:07;;;;;;;2.95;1.38;;;;;;;-142.70;100.00;60390.16;4716882;30;20044;-79
2021/05/08 06:53:32;;;;;;;3.03;1.90;;;;;;;-142.70;100.00;60390.16;4703039;30;20045;-83
2021/05/08 06:55:57;;;;;;;1.90;1.80;;;;;;;-142.70;100.00;60390.16;4730957;30;20589;-82
2021/05/08 06:58:23;;;;;;;2.78;2.35;;;;;;;-142.70;100.00;60390.16;4731127;30;20083;-81
2021/05/08 07:00:48;;;;;;;2.92;2.63;;;;;;;-142.70;100.00;60390.16;4721345;30;20834;-86
2021/05/08 07:03:14;;;;;;;2.72;2.53;;;;;;;-142.70;100.00;60390.16;4724059;30;20021;-87
2021/05/08 07:05:39;;;;;;;3.05;2.50;;;;;;;-142.70;100.00;60390.16;4698860;30;20037;-85
2021/05/08 07:08:06;;;;;;;2.22;2.03;;;;;;;-142.70;100.00;60390.16;4731913;30;20473;-80
2021/05/08 07:10:31;;;;;;;3.05;2.70;;;;;;;-142.70;100.00;60390.16;4691768;30;20072;-81
2021/05/08 07:12:57;;;;;;;2.22;2.03;;;;;;;-142.70;100.00;60390.16;4698112;30;20073;-83
2021/05/08 07:15:22;;;;;;;3.80;3.50;;;;;;;-142.70;100.00;60390.16;4699698;30;20025;-81
2021/05/08 07:18:01;;;;;;;2.22;1.67;;;;;;;-142.70;100.00;60390.16;4721825;30;20033;-84
2021/05/08 07:20:27;;;;;;;2.88;2.10;;;;;;;-142.70;100.00;60390.16;4731358;30;20040;-81
2021/05/08 07:22:52;;;;;;;2.45;2.25;;;;;;;-142.70;100.00;60390.16;4699915;30;20055;-78
2021/05/08 07:25:17;;;;;;;2.22;2.13;;;;;;;-142.70;100.00;60390.16;4702660;30;20029;-80
2021/05/08 07:27:43;;;;;;;2.78;2.10;;;;;;;-142.70;100.00;60390.16;4730421;30;20028;-77
2021/05/08 07:30:09;;;;;;;3.33;3.03;;;;;;;-142.70;100.00;60390.16;4730429;30;20040;-81
2021/05/08 07:32:35;;;;;;;2.08;1.83;;;;;;;-142.70;100.00;60390.16;4716521;30;20044;-80
2021/05/08 07:35:00;;;;;;;1.80;1.70;;;;;;;-142.70;100.00;60390.16;4715488;30;20063;-81
2021/05/08 07:37:26;;;;;;;5.32;4.85;;;;;;;-142.70;100.00;60390.16;4731181;30;20068;-81
2021/05/08 07:39:51;;;;;;;1.58;1.48;;;;;;;-142.70;100.00;60390.16;4729677;30;20041;-79
2021/05/08 07:42:17;;;;;;;2.95;2.33;;;;;;;-142.70;100.00;60390.16;4731436;30;20060;-78
2021/05/08 07:44:42;;;;;;;2.22;2.05;;;;;;;-142.70;100.00;60390.16;4714513;30;20040;-87
2021/05/08 07:47:08;;;;;;;3.30;2.10;;;;;;;-142.70;100.00;60390.16;4730408;30;20037;-81
2021/05/08 07:49:33;;;;;;;3.20;2.58;;;;;;;-142.70;100.00;60390.16;4731965;30;20036;-80
2021/05/08 07:51:59;;;;;;;2.53;2.42;;;;;;;-142.70;100.00;60390.16;4715166;30;20496;-78
2021/05/08 07:54:24;;;;;;;2.45;2.10;;;;;;;-142.70;100.00;60390.16;4732299;30;20032;-81
2021/05/08 07:56:49;;;;;;;2.80;2.70;;;;;;;-142.70;100.00;60390.16;4730430;30;20044;-82
2021/05/08 07:59:16;;;;;;;4.32;2.90;;;;;;;-142.70;100.00;60390.16;4717889;30;20036;-82
2021/05/08 08:01:41;;;;;;;3.20;3.00;;;;;;;-142.70;100.00;60390.16;4734776;30;20052;-80
2021/05/08 08:04:06;;;;;;;4.30;2.97;;;;;;;-142.70;100.00;60390.16;4734974;30;20029;-84
2021/05/08 08:06:32;;;;;;;3.70;3.30;;;;;;;-142.70;100.00;60390.16;4728125;30;20036;-83
2021/05/08 08:08:57;;;;;;;3.33;3.13;;;;;;;-142.70;100.00;60390.16;4728599;30;20033;-82
2021/05/08 08:11:23;;;;;;;3.60;3.40;;;;;;;-142.70;100.00;60390.16;4699845;30;20095;-81
2021/05/08 08:13:49;;;;;;;3.90;3.60;;;;;;;-142.70;100.00;60390.16;4699493;30;20033;-80
2021/05/08 08:16:14;;;;;;;4.00;3.30;;;;;;;-142.70;100.00;60390.16;4682688;30;20026;-81
2021/05/08 08:18:40;;;;;;;3.30;3.10;;;;;;;-142.70;100.00;60390.16;4710781;30;20519;-80
2021/05/08 08:21:05;;;;;;;3.40;3.20;;;;;;;-142.70;100.00;60390.16;4696812;30;20424;-83
2021/05/08 08:23:31;;;;;;;3.05;2.85;;;;;;;-142.70;100.00;60390.16;4721249;30;20474;-80
2021/05/08 08:25:56;;;;;;;3.38;3.08;;;;;;;-142.70;100.00;60390.16;4714164;30;20043;-85
2021/05/08 08:28:22;;;;;;;3.10;2.90;;;;;;;-142.70;100.00;60390.16;4713922;30;20033;-81
2021/05/08 08:30:48;;;;;;;3.58;3.35;;;;;;;-142.70;100.00;60390.16;4727966;30;20488;-83
2021/05/08 08:33:14;;;;;;;3.53;3.33;;;;;;;-142.70;100.00;60390.16;4728655;30;20044;-82
2021/05/08 08:35:39;;;;;;;3.67;3.47;;;;;;;-142.70;100.00;60390.16;4727695;30;20036;-80
2021/05/08 08:38:06;;;;;;;4.10;3.90;;;;;;;-142.70;100.00;60390.16;4719550;30;20028;-84
2021/05/08 08:40:32;;;;;;;3.90;3.47;;;;;;;-142.70;100.00;60390.16;4697091;30;20044;-80
2021/05/08 08:42:58;;;;;;;3.42;3.22;;;;;;;-142.70;100.00;60390.16;4699053;30;20071;-80
2021/05/08 08:45:23;;;;;;;5.43;4.68;;;;;;;-142.70;100.00;60390.16;4712983;30;20075;-82
2021/05/08 08:47:49;;;;;;;6.07;5.68;;;;;;;-142.70;100.00;60390.16;4727934;30;20029;-79
2021/05/08 08:50:15;;;;;;;8.07;7.40;;;;;;;-142.70;100.00;60390.16;4697285;30;20040;-81
2021/05/08 08:52:40;;;;;;;3.97;3.65;;;;;;;-142.70;100.00;60390.16;4715095;30;20440;-82
2021/05/08 08:55:10;;;;;;;4.53;4.22;;;;;;;-142.70;100.00;60390.16;4731151;30;20119;-82
2021/05/08 08:57:39;;;;;;;5.10;4.80;;;;;;;-142.70;100.00;60390.16;4699289;30;20033;-81
2021/05/08 09:00:11;;;;;;;5.28;4.80;;;;;;;-142.70;100.00;60390.16;4717228;30;20113;-81
2021/05/08 09:02:37;;;;;;;4.43;4.07;;;;;;;-142.70;100.00;60390.16;4726985;30;20051;-85
2021/05/08 09:05:03;;;;;;;4.00;3.80;;;;;;;-142.70;100.00;60390.16;4726927;30;20032;-82
2021/05/08 09:07:29;;;;;;;4.18;3.78;;;;;;;-142.70;100.00;60390.16;4713299;30;20090;-82
2021/05/08 09:09:55;;;;;;;7.93;7.22;;;;;;;-142.70;100.00;60390.16;4698689;30;20040;-82
2021/05/08 09:12:26;;;;;;;16.25;13.05;;;;;;;-142.70;100.00;60390.16;4698345;30;20078;-85
2021/05/08 09:14:51;;;;;;;5.35;4.88;;;;;;;-142.70;100.00;60390.16;4727670;30;20044;-82
2021/05/08 09:17:27;;;;;;;5.57;5.28;;;;;;;-142.70;100.00;60390.16;4712989;30;20416;-78
2021/05/08 09:19:58;;;;;;;4.82;4.38;;;;;;;-142.70;100.00;60390.16;4683495;30;20431;-84
2021/05/08 09:22:28;;;;;;;4.35;3.97;;;;;;;-142.70;100.00;60390.16;4721142;30;20438;-83
2021/05/08 09:24:55;;;;;;;4.45;4.07;;;;;;;-142.70;100.00;60390.16;4710426;30;20127;-81
2021/05/08 09:27:33;;;;;;;4.90;4.32;;;;;;;-142.70;100.00;60390.16;4710087;30;20048;-80
2021/05/08 09:30:13;;;;;;;4.35;4.00;;;;;;;-142.70;100.00;60390.16;4724217;30;20039;-82
2021/05/08 09:32:39;;;;;;;;;;;;;;;-142.70;100.00;60390.16;4710723;30;20041;-82
2021/05/08 09:35:07;;;;;;;9.98;9.18;;;;;;;-142.70;100.00;60390.16;4709905;30;19919;-81
2021/05/08 09:37:33;;;;;;;6.10;5.60;;;;;;;-142.70;100.00;60390.16;4709394;30;20184;-79
2021/05/08 09:40:14;;;;;;;8.40;7.70;;;;;;;-142.70;100.00;60390.16;4709523;30;20528;-82
2021/05/08 09:42:44;;;;;;;6.10;5.60;;;;;;;-142.70;100.00;60390.16;4681598;30;20037;-81
2021/05/08 09:45:10;;;;;;;;;;;;;;;-142.70;100.00;60390.16;4695386;30;20029;-79
2021/05/08 09:47:36;;;;;;;4.55;4.30;;;;;;;-142.70;100.00;60390.16;4695305;30;19926;-80
2021/05/08 09:50:01;;;;;;;6.65;6.03;;;;;;;-142.70;100.00;60390.16;4695167;30;20037;-79
2021/05/08 09:52:39;;;;;;;6.57;6.05;;;;;;;-142.70;100.00;60390.16;4710605;30;20496;-81
2021/05/08 09:55:05;;;;;;;4.30;4.00;;;;;;;-142.70;100.00;60390.16;4695976;30;20041;-81
2021/05/08 09:57:31;;;;;;;4.63;4.35;;;;;;;-142.70;100.00;60390.16;4694497;30;20087;-83
2021/05/08 09:59:57;;;;;;;8.02;6.05;;;;;;;-142.70;100.00;60390.16;4724508;30;20040;-85
2021/05/08 10:02:23;;;;;;;4.32;3.88;;;;;;;-142.70;100.00;60390.16;4679892;30;20152;-81
2021/05/08 10:04:50;;;;;;;4.20;3.90;;;;;;;-142.70;100.00;60390.16;4711420;30;20397;-80
2021/05/08 10:07:25;;;;;;;4.40;4.10;;;;;;;-142.70;100.00;60390.16;4695005;30;20492;-79
2021/05/08 10:09:54;;;;;;;4.60;4.22;;;;;;;-142.70;100.00;60390.16;4698687;30;20456;-84
2021/05/08 10:12:21;;;;;;;4.82;3.05;;;;;;;-142.70;100.00;60390.16;4727438;30;20076;-82
2021/05/08 10:14:50;;;;;;;4.63;4.22;;;;;;;-142.70;100.00;60390.16;4712024;30;20033;-81
2021/05/08 10:17:20;;;;;;;4.70;4.30;;;;;;;-142.70;100.00;60390.16;4727301;30;20047;-81
2021/05/08 10:19:47;;;;;;;4.60;4.20;;;;;;;-142.70;100.00;60390.16;4711796;30;20068;-79
2021/05/08 10:22:12;;;;;;;4.15;3.83;;;;;;;-142.70;100.00;60390.16;4727246;30;20492;-80
2021/05/08 10:24:42;;;;;;;6.55;3.88;;;;;;;-142.70;100.00;60390.16;4715263;30;20032;-78
2021/05/08 10:27:08;;;;;;;3.60;3.40;;;;;;;-142.70;100.00;60390.16;4701522;30;20033;-80
2021/05/08 10:29:47;;;;;;;5.53;3.85;;;;;;;-142.70;100.00;60390.16;4701749;30;20035;-80
2021/05/08 10:32:17;;;;;;;4.00;3.70;;;;;;;-142.70;100.00;60390.16;4687811;30;20145;-78
2021/05/08 10:34:53;;;;;;;3.90;3.60;;;;;;;-142.70;100.00;60390.16;4687685;30;20052;-78
2021/05/08 10:37:19;;;;;;;3.95;3.50;;;;;;;-142.70;100.00;60390.16;4686549;30;20426;-81
2021/05/08 10:39:50;;;;;;;3.63;3.42;;;;;;;-142.70;100.00;60390.16;4702550;30;20123;-79
2021/05/08 10:42:35;;;;;;;3.47;3.17;;;;;;;-142.70;100.00;60390.16;4731240;30;20059;-81
2021/05/08 10:45:03;;;;;;;3.03;2.92;;;;;;;-142.70;100.00;60390.16;4729668;30;20118;-82
2021/05/08 10:47:53;;;;;;;4.35;3.40;;;;;;;-142.70;100.00;60390.16;4715371;30;20114;-81
2021/05/08 10:50:30;;;;;;;3.40;3.20;;;;;;;-142.70;100.00;60390.16;4730783;30;20439;-81
2021/05/08 10:53:03;;;;;;;4.35;3.42;;;;;;;-142.70;100.00;60390.16;4730868;30;20499;-79
2021/05/08 10:55:29;;;;;;;3.40;3.17;;;;;;;-142.70;100.00;60390.16;4715729;30;20061;-81
2021/05/08 10:58:13;;;;;;;3.80;3.60;;;;;;;-142.70;100.00;60390.16;4685767;30;20107;-80
2021/05/08 11:00:51;;;;;;;2.88;2.67;;;;;;;-142.70;100.00;60390.16;4729002;30;20133;-80
2021/05/08 11:03:18;;;;;;;3.40;3.15;;;;;;;-142.70;100.00;60390.16;4730223;30;20032;-79
2021/05/08 11:05:50;;;;;;;5.15;3.20;;;;;;;-142.70;100.00;60390.16;4700839;30;20035;-83
2021/05/08 11:08:25;;;;;;;3.70;3.40;;;;;;;-142.70;100.00;60390.16;4714720;30;20033;-80
2021/05/08 11:10:57;;;;;;;3.08;2.70;;;;;;;-142.70;100.00;60390.16;4730512;30;20039;-78
2021/05/08 11:13:24;;;;;;;3.22;3.00;;;;;;;-142.70;100.00;60390.16;4686923;30;20124;-78
2021/05/08 11:15:50;;;;;;;3.35;3.05;;;;;;;-142.70;100.00;60390.16;4714279;30;20111;-84
2021/05/08 11:18:45;;;;;;;2.85;2.65;;;;;;;-142.70;100.00;60390.16;4730815;30;20574;-79
2021/05/08 11:21:11;;;;;;;4.25;3.03;;;;;;;-142.70;100.00;60390.16;4730887;30;20083;-78
2021/05/08 11:23:43;;;;;;;3.92;3.20;;;;;;;-142.70;100.00;60390.16;4729458;30;20060;-79
2021/05/08 11:26:24;;;;;;;3.70;3.30;;;;;;;-142.70;100.00;60390.16;4715666;30;20164;-81
2021/05/08 11:28:53;;;;;;;3.45;3.25;;;;;;;-142.70;100.00;60390.16;4730049;30;20029;-80
2021/05/08 11:31:40;;;;;;;3.35;3.15;;;;;;;-142.70;100.00;60390.16;4714646;30;20040;-80
2021/05/08 11:34:31;;;;;;;4.45;2.58;;;;;;;-142.70;100.00;60390.16;4700867;30;20033;-79
2021/05/08 11:37:03;;;;;;;2.85;2.55;;;;;;;-142.70;100.00;60390.16;4686568;30;20068;-82
2021/05/08 11:39:29;;;;;;;2.70;2.50;;;;;;;-142.70;100.00;60390.16;4714478;30;20043;-82
2021/05/08 11:41:59;;;;;;;3.38;3.03;;;;;;;-142.70;100.00;60390.16;4708495;30;20028;-80
2021/05/08 11:44:25;;;;;;;3.00;2.70;;;;;;;-142.70;100.00;60390.16;4700471;30;20400;-80
2021/05/08 11:46:52;;;;;;;2.20;2.10;;;;;;;-142.70;100.00;60390.16;4713650;30;20057;-79
2021/05/08 11:49:25;;;;;;;2.95;2.75;;;;;;;-142.70;100.00;60390.16;4694914;30;20047;-78
2021/05/08 11:51:50;;;;;;;6.47;2.50;;;;;;;-142.70;100.00;60390.16;4700258;30;20028;-79
2021/05/08 11:54:16;;;;;;;2.30;2.20;;;;;;;-142.70;100.00;60390.16;4713289;30;20515;-77
2021/05/08 11:56:41;;;;;;;2.30;2.10;;;;;;;-142.70;100.00;60390.16;4685880;30;20530;-81
2021/05/08 11:59:07;;;;;;;2.70;2.47;;;;;;;-142.70;100.00;60390.16;4699132;30;20032;-80
2021/05/08 12:01:33;;;;;;;2.30;2.10;;;;;;;-142.70;100.00;60390.16;4720064;30;20114;-78
2021/05/08 12:04:03;;;;;;;2.10;2.00;;;;;;;-142.70;100.00;60390.16;4727983;30;20039;-79
2021/05/08 12:06:28;;;;;;;2.38;1.70;;;;;;;-142.70;100.00;60390.16;4714229;30;20040;-78
2021/05/08 12:08:54;;;;;;;1.90;1.80;;;;;;;-142.70;100.00;60390.16;4728264;30;20131;-77
2021/05/08 12:11:20;;;;;;;3.38;2.25;;;;;;;-142.70;100.00;60390.16;4699339;30;20036;-78
2021/05/08 12:13:45;;;;;;;1.60;1.50;;;;;;;-142.70;100.00;60390.16;4728419;30;20133;-80
2021/05/08 12:16:11;;;;;;;1.95;1.85;;;;;;;-142.70;100.00;60390.16;4725743;30;20040;-79
2021/05/08 12:18:40;;;;;;;2.28;2.08;;;;;;;-142.70;100.00;60390.16;4712247;30;20103;-79
2021/05/08 12:21:12;;;;;;;1.77;1.67;;;;;;;-142.70;100.00;60390.16;4719980;30;20456;-80
2021/05/08 12:23:38;;;;;;;2.00;1.90;;;;;;;-142.70;100.00;60390.16;4728482;30;20434;-78
2021/05/08 12:26:07;;;;;;;2.28;1.85;;;;;;;-142.70;100.00;60390.16;4713979;30;20033;-77
2021/05/08 12:28:33;;;;;;;3.40;1.77;;;;;;;-142.70;100.00;60390.16;4728070;30;20522;-77
2021/05/08 12:31:02;;;;;;;7.40;6.80;;;;;;;-142.70;100.00;60390.16;4728842;30;20037;-76
2021/05/08 12:33:27;;;;;;;3.10;2.92;;;;;;;-142.70;100.00;60390.16;4727863;30;20098;-78
2021/05/08 12:35:54;;;;;;;4.13;3.92;;;;;;;-142.70;100.00;60390.16;4714060;30;20028;-78
2021/05/08 12:38:19;;;;;;;8.00;6.80;;;;;;;-142.70;100.00;60390.16;4727894;30;20491;-80
2021/05/08 12:40:45;;;;;;;2.70;2.15;;;;;;;-142.70;100.00;60390.16;4729583;30;20089;-79
2021/05/08 12:43:10;;;;;;;3.15;2.10;;;;;;;-142.70;100.00;60390.16;4713306;30;20072;-79
2021/05/08 12:46:10;;;;;;;3.85;1.90;;;;;;;-142.70;100.00;60390.16;4728047;30;20040;-80
2021/05/08 12:48:39;;;;;;;2.20;2.10;;;;;;;-142.70;100.00;60390.16;4714128;30;20519;-78
2021/05/08 12:51:29;;;;;;;2.17;1.98;;;;;;;-142.70;100.00;60390.16;4728853;30;20021;-78
2021/05/08 12:54:17;;;;;;;2.47;2.28;;;;;;;-142.70;100.00;60390.16;4727872;30;20052;-78
2021/05/08 12:56:43;;;;;;;2.08;1.88;;;;;;;-142.70;100.00;60390.16;4728030;30;20041;-78
2021/05/08 12:59:09;;;;;;;6.07;5.55;;;;;;;-142.70;100.00;60390.16;4712909;30;20041;-79
2021/05/08 13:01:37;;;;;;;2.63;2.30;;;;;;;-142.70;100.00;60390.16;4727964;30;20473;-78
2021/05/08 13:04:03;;;;;;;3.97;3.78;;;;;;;-142.70;100.00;60390.16;4727433;30;20064;-77
2021/05/08 13:06:29;;;;;;;5.38;2.85;;;;;;;-142.70;100.00;60390.16;4728006;30;20536;-79
2021/05/08 13:08:54;;;;;;;5.93;5.50;;;;;;;-142.70;100.00;60390.16;4698365;30;20033;-80
2021/05/08 13:11:40;;;;;;;7.38;6.78;;;;;;;-142.70;100.00;60390.16;4713226;30;20393;-80
2021/05/08 13:14:25;;;;;;;1.90;1.80;;;;;;;-142.70;100.00;60390.16;4728122;30;20068;-78
2021/05/08 13:16:54;;;;;;;2.92;2.72;;;;;;;-142.70;100.00;60390.16;4728471;30;20043;-79
2021/05/08 13:19:20;;;;;;;4.28;1.73;;;;;;;-142.70;100.00;60390.16;4727746;30;20116;-78
2021/05/08 13:21:45;;;;;;;2.88;1.70;;;;;;;-142.70;100.00;60390.16;4726971;30;20123;-79
2021/05/08 13:24:11;;;;;;;2.55;1.85;;;;;;;-142.70;100.00;60390.16;4712865;30;20051;-78
2021/05/08 13:26:37;;;;;;;6.53;3.33;;;;;;;-142.70;100.00;60390.16;4698351;30;20454;-79
2021/05/08 13:29:03;;;;;;;2.70;2.50;;;;;;;-142.70;100.00;60390.16;4712225;30;20080;-83
2021/05/08 13:31:29;;;;;;;2.50;2.30;;;;;;;-142.70;100.00;60390.16;4696329;30;20037;-79
2021/05/08 13:33:54;;;;;;;3.20;1.98;;;;;;;-142.70;100.00;60390.16;4709781;30;20115;-77
2021/05/08 13:36:20;;;;;;;3.65;2.63;;;;;;;-142.70;100.00;60390.16;4710480;30;20041;-79
2021/05/08 13:38:49;;;;;;;3.80;3.60;;;;;;;-142.70;100.00;60390.16;4695222;30;20033;-80
2021/05/08 13:41:15;;;;;;;1.80;1.67;;;;;;;-142.70;100.00;60390.16;4709902;30;20423;-81
2021/05/08 13:43:41;;;;;;;2.25;2.15;;;;;;;-142.70;100.00;60390.16;4725525;30;20041;-77
2021/05/08 13:46:06;;;;;;;2.08;1.88;;;;;;;-142.70;100.00;60390.16;4712374;30;20124;-81
2021/05/08 13:48:32;;;;;;;3.08;2.20;;;;;;;-142.70;100.00;60390.16;4713055;30;20043;-81
2021/05/08 13:50:57;;;;;;;1.73;1.40;;;;;;;-142.70;100.00;60390.16;4726946;30;20033;-79
2021/05/08 13:53:23;;;;;;;1.60;1.50;;;;;;;-142.70;100.00;60390.16;4727379;30;20389;-79
2021/05/08 13:55:48;;;;;;;2.28;1.90;;;;;;;-142.70;100.00;60390.16;4725897;30;20029;-77
2021/05/08 13:58:14;;;;;;;1.63;1.52;;;;;;;-142.70;100.00;60390.16;4729754;30;20040;-79
2021/05/08 14:00:40;;;;;;;1.75;1.65;;;;;;;-142.70;100.00;60390.16;4711332;30;20057;-79
2021/05/08 14:03:05;;;;;;;6.82;1.48;;;;;;;-142.70;100.00;60390.16;4704301;30;20028;-79
2021/05/08 14:05:31;;;;;;;1.40;1.30;;;;;;;-142.70;100.00;60390.16;4720300;30;20656;-79
2021/05/08 14:07:56;;;;;;;1.65;1.55;;;;;;;-142.70;100.00;60390.16;4713017;30;20542;-78
2021/05/08 14:10:22;;;;;;;1.52;1.42;;;;;;;-142.70;100.00;60390.16;4701726;30;20449;-79
2021/05/08 14:12:47;;;;;;;2.95;1.90;;;;;;;-142.70;100.00;60390.16;4686919;30;20044;-78
2021/05/08 14:15:13;;;;;;;2.70;1.90;;;;;;;-142.70;100.00;60390.16;4728163;30;20036;-78
2021/05/08 14:17:39;;;;;;;2.95;2.30;;;;;;;-142.70;100.00;60390.16;4679006;30;20036;-79
2021/05/08 14:20:07;;;;;;;2.22;2.03;;;;;;;-142.70;100.00;60390.16;4699389;30;20052;-79
2021/05/08 14:22:32;;;;;;;2.15;1.75;;;;;;;-142.70;100.00;60390.16;4714276;30;20071;-79
2021/05/08 14:24:58;;;;;;;2.55;1.63;;;;;;;-142.70;100.00;60390.16;4697094;30;20064;-80
2021/05/08 14:27:23;;;;;;;2.22;1.30;;;;;;;-142.70;100.00;60390.16;4695056;30;20567;-78
2021/05/08 14:29:49;;;;;;;1.92;1.08;;;;;;;-142.70;100.00;60390.16;4699498;30;20504;-80
2021/05/08 14:32:15;;;;;;;4.13;1.08;;;;;;;-142.70;100.00;60390.16;4694172;30;20041;-79
2021/05/08 14:34:40;;;;;;;2.08;1.10;;;;;;;-142.70;100.00;60390.16;4711437;30;20032;-79
2021/05/08 14:37:06;;;;;;;5.40;1.10;;;;;;;-142.70;100.00;60390.16;4711933;30;20036;-79
2021/05/08 14:39:31;;;;;;;1.25;1.08;;;;;;;-142.70;100.00;60390.16;4711695;30;20036;-79
2021/05/08 14:41:57;;;;;;;0.95;0.90;;;;;;;-142.70;100.00;60390.16;4687147;30;20036;-79
2021/05/08 14:44:22;;;;;;;1.65;0.88;;;;;;;-142.70;100.00;60390.16;4695054;30;20033;-78
2021/05/08 14:46:48;;;;;;;1.75;0.85;;;;;;;-142.70;100.00;60390.16;4693872;30;20045;-78
2021/05/08 14:49:13;;;;;;;1.05;0.60;;;;;;;-142.70;100.00;60390.16;4681091;30;20040;-78
2021/05/08 14:51:39;;;;;;;4.47;0.90;;;;;;;-142.70;100.00;60390.16;4708603;30;20041;-78
2021/05/08 14:54:05;;;;;;;2.72;1.10;;;;;;;-142.70;100.00;60390.16;4709559;30;20029;-81
2021/05/08 14:56:30;;;;;;;2.72;0.88;;;;;;;-142.70;100.00;60390.16;4708663;30;20119;-79
2021/05/08 14:58:56;;;;;;;3.75;0.90;;;;;;;-142.70;100.00;60390.16;4709397;30;20489;-80
2021/05/08 15:01:21;;;;;;;2.55;0.90;;;;;;;-142.70;100.00;60390.16;4713448;30;20507;-77
2021/05/08 15:03:47;;;;;;;1.45;0.90;;;;;;;-142.70;100.00;60390.16;4697103;30;20028;-82
2021/05/08 15:06:12;;;;;;;1.15;1.05;;;;;;;-142.70;100.00;60390.16;4710948;30;20435;-78
2021/05/08 15:08:38;;;;;;;2.17;0.77;;;;;;;-142.70;100.00;60390.16;4682416;30;20514;-78
2021/05/08 15:11:03;;;;;;;1.08;0.98;;;;;;;-142.70;100.00;60390.16;4700742;30;20540;-82
2021/05/08 15:13:29;;;;;;;2.28;0.80;;;;;;;-142.70;100.00;60390.16;4699782;30;20041;-79
2021/05/08 15:15:57;;;;;;;0.70;0.70;;;;;;;-142.70;100.00;60390.16;4686639;30;20058;-77
2021/05/08 15:18:25;;;;;;;0.60;0.50;;;;;;;-142.70;100.00;60390.16;4714726;30;20056;-81
2021/05/08 15:20:50;;;;;;;2.47;0.60;;;;;;;-142.70;100.00;60390.16;4686599;30;20094;-80
2021/05/08 15:23:15;;;;;;;2.92;1.20;;;;;;;-142.70;100.00;60390.16;4700187;30;20036;-81
2021/05/08 15:25:41;;;;;;;1.73;0.80;;;;;;;-142.70;100.00;60390.16;4700125;30;20041;-79
2021/05/08 15:28:06;;;;;;;1.25;0.60;;;;;;;-142.70;100.00;60390.16;4715724;30;20102;-78
2021/05/08 15:30:32;;;;;;;1.13;0.98;;;;;;;-142.70;100.00;60390.16;4699832;30;20032;-78
2021/05/08 15:32:57;;;;;;;1.75;0.90;;;;;;;-142.70;100.00;60390.16;4714647;30;20047;-79
2021/05/08 15:35:23;;;;;;;0.55;0.50;;;;;;;-142.70;100.00;60390.16;4700137;30;20029;-80
2021/05/08 15:37:48;;;;;;;1.30;0.60;;;;;;;-142.70;100.00;60390.16;4714623;30;20046;-78
2021/05/08 15:40:14;;;;;;;2.72;0.80;;;;;;;-142.70;100.00;60390.16;4700026;30;20045;-78
2021/05/08 15:42:40;;;;;;;4.75;0.80;;;;;;;-142.70;100.00;60390.16;4714169;30;20734;-80
2021/05/08 15:45:10;;;;;;;1.77;0.60;;;;;;;-142.70;100.00;60390.16;4715186;30;20404;-77
2021/05/08 15:47:36;;;;;;;2.13;0.70;;;;;;;-142.70;100.00;60390.16;4714602;30;20415;-79
2021/05/08 15:50:02;;;;;;;1.17;0.63;;;;;;;-142.70;100.00;60390.16;4714986;30;20174;-80
2021/05/08 15:52:28;;;;;;;3.72;0.90;;;;;;;-142.70;100.00;60390.16;4727024;30;20032;-80
2021/05/08 15:54:54;;;;;;;0.65;0.50;;;;;;;-142.70;100.00;60390.16;4713087;30;20098;-78
2021/05/08 15:57:19;;;;;;;0.85;0.68;;;;;;;-142.70;100.00;60390.16;4689458;30;20152;-78
2021/05/08 15:59:45;;;;;;;1.40;0.68;;;;;;;-142.70;100.00;60390.16;4694467;30;20036;-79
2021/05/08 16:02:10;;;;;;;1.45;0.73;;;;;;;-142.70;100.00;60390.16;4685887;30;20057;-79
2021/05/08 16:04:36;;;;;;;2.63;0.82;;;;;;;-142.70;100.00;60390.16;4711948;30;20060;-79
2021/05/08 16:07:02;;;;;;;2.60;0.70;;;;;;;-142.70;100.00;60390.16;4697338;30;20041;-80
2021/05/08 16:09:28;;;;;;;1.67;0.70;;;;;;;-142.70;100.00;60390.16;4667889;30;20037;-79
2021/05/08 16:11:53;;;;;;;1.38;0.73;;;;;;;-142.70;100.00;60390.16;4696702;30;20735;-83